Time;durP1;ratioP1;P1;durP2;ratioP2;P2;SDS_P1;SDS_P2;PMS_P1;PMS_P2;Temp;Humidity;BMP_temperature;BMP_pressure;BME280_temperature;BME280_humidity;BME280_pressure;Samples;Min_cycle;Max_cycle;Signal;HPM_P1;HPM_P2
2023/01/23 00:00:41;;;;;;;45.70;36.92;;;;;;;0.88;100.00;103370.34;5098498;28;20020;-60
2023/01/23 00:03:06;;;;;;;41.20;34.53;;;;;;;0.88;100.00;103363.38;5098424;28;20027;-59
2023/01/23 00:05:34;;;;;;;44.83;34.55;;;;;;;0.93;100.00;103365.19;5097239;28;20499;-59
2023/01/23 00:07:59;;;;;;;44.35;34.83;;;;;;;0.88;100.00;103358.16;5098682;28;20325;-59
2023/01/23 00:10:24;;;;;;;40.22;34.85;;;;;;;0.80;100.00;103341.41;5098350;28;20572;-59
2023/01/23 00:12:52;;;;;;;42.83;35.93;;;;;;;0.93;100.00;103360.81;5098563;28;20060;-60
2023/01/23 00:15:18;;;;;;;42.63;36.90;;;;;;;0.89;100.00;103359.03;5098561;28;20493;-59
2023/01/23 00:17:44;;;;;;;44.67;35.80;;;;;;;0.93;100.00;103352.97;5098178;28;20020;-60
2023/01/23 00:20:13;;;;;;;44.00;35.53;;;;;;;0.89;100.00;103362.53;5114806;28;20020;-59
2023/01/23 00:22:38;;;;;;;46.17;37.47;;;;;;;0.91;100.00;103362.53;5100228;28;20081;-59
2023/01/23 00:25:05;;;;;;;48.10;36.93;;;;;;;0.90;100.00;103366.00;5102382;28;20409;-60
2023/01/23 00:27:31;;;;;;;42.77;36.60;;;;;;;0.83;100.00;103359.78;5090522;28;20048;-60
2023/01/23 00:29:57;;;;;;;42.97;35.63;;;;;;;0.86;100.00;103365.09;5086047;28;20034;-60
2023/01/23 00:32:22;;;;;;;47.97;36.63;;;;;;;0.88;100.00;103368.63;5106416;28;20035;-59
2023/01/23 00:34:48;;;;;;;45.40;36.77;;;;;;;0.91;100.00;103373.00;5114282;28;20088;-59
2023/01/23 00:37:16;;;;;;;44.60;35.47;;;;;;;0.84;100.00;103372.03;5099567;28;20121;-59
2023/01/23 00:39:42;;;;;;;45.03;36.47;;;;;;;0.93;100.00;103379.16;5099027;28;20506;-60
2023/01/23 00:42:10;;;;;;;45.90;35.25;;;;;;;0.93;100.00;103381.78;5107186;28;20055;-59
2023/01/23 00:44:35;;;;;;;44.67;36.47;;;;;;;0.90;100.00;103382.59;5118216;28;20441;-59
2023/01/23 00:47:01;;;;;;;46.93;37.53;;;;;;;0.92;100.00;103387.00;5084551;28;20071;-59
2023/01/23 00:49:26;;;;;;;47.70;36.73;;;;;;;0.87;100.00;103379.06;5104648;28;20054;-59
2023/01/23 00:51:55;;;;;;;43.30;36.83;;;;;;;0.88;100.00;103384.34;5100388;28;20022;-59
2023/01/23 00:54:21;;;;;;;44.80;35.73;;;;;;;0.95;100.00;103393.19;5116605;28;20027;-59
2023/01/23 00:56:47;;;;;;;47.37;36.17;;;;;;;0.93;100.00;103380.91;5102655;28;20099;-59
2023/01/23 00:59:14;;;;;;;48.57;35.70;;;;;;;0.98;100.00;103390.63;5106591;28;20095;-59
2023/01/23 01:01:40;;;;;;;43.50;35.27;;;;;;;0.92;100.00;103385.28;5118469;28;20428;-60
2023/01/23 01:04:05;;;;;;;46.83;35.93;;;;;;;0.95;100.00;103373.97;5110060;28;20047;-59
2023/01/23 01:06:33;;;;;;;46.73;36.40;;;;;;;0.90;100.00;103374.75;5116234;28;20039;-59
2023/01/23 01:08:59;;;;;;;43.93;35.57;;;;;;;0.92;100.00;103380.03;5116265;28;20467;-59
2023/01/23 01:11:24;;;;;;;44.13;36.77;;;;;;;0.97;100.00;103382.72;5083393;28;20743;-59
2023/01/23 01:13:52;;;;;;;44.43;36.70;;;;;;;0.96;100.00;103375.72;5094370;28;20024;-59
2023/01/23 01:16:18;;;;;;;43.50;35.83;;;;;;;0.89;100.00;103375.63;5086468;28;20020;-60
2023/01/23 01:18:44;;;;;;;44.23;36.00;;;;;;;0.97;100.00;103374.84;5096848;28;20030;-59
2023/01/23 01:21:12;;;;;;;45.97;36.17;;;;;;;1.00;100.00;103391.53;5103221;28;20088;-60
2023/01/23 01:23:39;;;;;;;48.77;37.70;;;;;;;0.95;100.00;103377.47;5106210;28;20047;-59
2023/01/23 01:26:05;;;;;;;50.40;36.53;;;;;;;0.95;100.00;103374.84;5101076;28;20019;-59
2023/01/23 01:28:32;;;;;;;42.43;35.73;;;;;;;0.92;100.00;103381.78;5114255;28;20486;-59
2023/01/23 01:31:04;;;;;;;44.87;35.80;;;;;;;0.90;100.00;103393.09;5096765;28;20485;-59
2023/01/23 01:33:29;;;;;;;47.23;35.37;;;;;;;0.78;100.00;103382.38;5096344;28;20107;-59
2023/01/23 01:35:55;;;;;;;43.03;35.70;;;;;;;0.89;100.00;103391.34;5114888;28;20098;-59
2023/01/23 01:38:21;;;;;;;43.70;34.57;;;;;;;0.92;100.00;103394.88;5114676;28;20034;-60
2023/01/23 01:40:47;;;;;;;41.80;33.37;;;;;;;0.96;100.00;103389.69;5105015;28;20027;-59
2023/01/23 01:43:39;;;;;;;42.90;33.37;;;;;;;1.03;100.00;103395.94;5094006;28;20020;-59
2023/01/23 01:46:18;;;;;;;45.07;34.80;;;;;;;0.98;100.00;103397.59;5088586;28;20064;-60
2023/01/23 01:49:06;;;;;;;42.53;33.60;;;;;;;0.88;100.00;103384.34;5094109;28;20478;-60
2023/01/23 01:51:53;;;;;;;41.70;34.57;;;;;;;1.03;100.00;103404.69;5093995;28;20028;-59
2023/01/23 01:54:29;;;;;;;44.50;34.37;;;;;;;1.05;100.00;103400.34;5092350;28;20082;-59
2023/01/23 01:57:06;;;;;;;40.60;32.43;;;;;;;1.03;100.00;103396.84;5094360;28;20032;-59
2023/01/23 01:59:37;;;;;;;43.07;32.67;;;;;;;0.97;100.00;103390.56;5093891;28;20433;-59
2023/01/23 02:02:09;;;;;;;39.73;32.83;;;;;;;1.09;100.00;103389.06;5092494;28;20086;-60
2023/01/23 02:04:40;;;;;;;43.67;34.63;;;;;;;1.07;100.00;103395.13;5093416;28;20101;-59
2023/01/23 02:07:12;;;;;;;40.65;31.80;;;;;;;1.01;100.00;103380.19;5093585;28;20027;-59
2023/01/23 02:09:40;;;;;;;44.03;33.00;;;;;;;0.99;100.00;103392.38;5093237;28;20077;-59
2023/01/23 02:12:06;;;;;;;40.97;34.47;;;;;;;0.98;100.00;103385.38;5093549;28;20099;-59
2023/01/23 02:14:31;;;;;;;48.47;34.90;;;;;;;1.01;100.00;103388.06;5075746;28;20427;-59
2023/01/23 02:16:59;;;;;;;46.53;35.40;;;;;;;1.01;100.00;103382.81;5093694;28;20020;-59
2023/01/23 02:19:31;;;;;;;45.43;33.93;;;;;;;0.96;100.00;103387.06;5093620;28;20433;-59
2023/01/23 02:22:21;;;;;;;45.77;34.67;;;;;;;1.00;100.00;103391.53;5075368;28;20115;-59
2023/01/23 02:25:15;;;;;;;44.28;32.28;;;;;;;1.01;100.00;103385.44;5091651;28;20027;-60
2023/01/23 02:27:41;;;;;;;42.27;33.33;;;;;;;0.97;100.00;103387.97;5093372;28;20028;-59
2023/01/23 02:30:07;;;;;;;44.80;34.30;;;;;;;1.02;100.00;103381.06;5093255;28;20050;-59
2023/01/23 02:32:34;;;;;;;43.63;33.97;;;;;;;1.03;100.00;103388.97;5093897;28;20467;-59
2023/01/23 02:35:07;;;;;;;46.83;34.33;;;;;;;1.02;100.00;103394.16;5094943;28;20051;-59
2023/01/23 02:37:34;;;;;;;44.43;35.73;;;;;;;0.98;100.00;103382.75;5102994;28;20032;-59
2023/01/23 02:40:02;;;;;;;41.63;33.23;;;;;;;1.01;100.00;103392.41;5106222;28;20064;-59
2023/01/23 02:42:29;;;;;;;50.30;36.03;;;;;;;1.03;100.00;103395.94;5087877;28;20023;-59
2023/01/23 02:44:56;;;;;;;44.77;35.07;;;;;;;1.02;100.00;103386.31;5099649;28;20084;-59
2023/01/23 02:47:22;;;;;;;46.33;34.35;;;;;;;1.04;100.00;103379.38;5103857;28;20545;-59
2023/01/23 02:49:47;;;;;;;44.22;35.85;;;;;;;1.12;100.00;103391.75;5095318;28;20107;-59
2023/01/23 02:52:13;;;;;;;45.33;34.60;;;;;;;1.13;100.00;103383.03;5095136;28;20102;-60
2023/01/23 02:54:39;;;;;;;49.03;36.80;;;;;;;1.06;100.00;103382.88;5112487;28;20028;-59
2023/01/23 02:57:05;;;;;;;45.17;35.53;;;;;;;1.09;100.00;103388.19;5088670;28;20063;-59
2023/01/23 03:02:14;;;;;;;45.40;34.30;;;;;;;1.06;100.00;103388.13;5092632;28;20047;-59
2023/01/23 03:04:42;;;;;;;53.90;34.40;;;;;;;1.04;100.00;103387.22;5073848;28;20055;-59
2023/01/23 03:07:07;;;;;;;46.58;35.88;;;;;;;1.03;100.00;103385.44;5112753;28;20031;-59
2023/01/23 03:09:36;;;;;;;47.60;35.53;;;;;;;1.03;100.00;103385.44;5112211;28;20027;-60
2023/01/23 03:12:04;;;;;;;45.70;34.80;;;;;;;1.08;100.00;103397.78;5112947;28;20023;-60
2023/01/23 03:14:31;;;;;;;51.10;34.50;;;;;;;1.06;100.00;103395.97;5094888;28;20033;-60
2023/01/23 03:16:57;;;;;;;46.20;34.97;;;;;;;1.00;100.00;103383.69;5112887;28;20019;-60
2023/01/23 03:19:25;;;;;;;45.33;34.60;;;;;;;1.12;100.00;103399.63;5112728;28;20020;-60
2023/01/23 03:21:54;;;;;;;45.50;34.93;;;;;;;1.11;100.00;103389.09;5093758;28;20030;-59
2023/01/23 03:24:20;;;;;;;40.87;34.20;;;;;;;1.07;100.00;103393.41;5112137;28;20023;-60
2023/01/23 03:26:47;;;;;;;48.10;34.80;;;;;;;1.10;100.00;103395.19;5112632;28;20048;-59
2023/01/23 03:32:02;;;;;;;44.13;33.93;;;;;;;1.05;100.00;103395.09;5112964;28;20026;-60
2023/01/23 03:34:28;;;;;;;44.60;34.47;;;;;;;1.07;100.00;103400.38;5111935;28;20019;-60
2023/01/23 03:36:54;;;;;;;47.00;34.77;;;;;;;1.06;100.00;103404.75;5112506;28;20034;-59
2023/01/23 03:42:03;;;;;;;42.40;34.37;;;;;;;1.10;100.00;103398.69;5112409;28;20107;-60
2023/01/23 03:44:29;;;;;;;43.27;34.63;;;;;;;1.08;100.00;103404.75;5112817;28;20470;-59
2023/01/23 03:46:55;;;;;;;43.03;35.10;;;;;;;1.08;100.00;103410.00;5080460;28;20032;-60
2023/01/23 03:49:20;;;;;;;46.13;35.60;;;;;;;1.11;100.00;103399.56;5098282;28;20032;-59
2023/01/23 03:51:48;;;;;;;42.33;33.87;;;;;;;1.07;100.00;103403.88;5097532;28;20024;-59
2023/01/23 03:54:13;;;;;;;43.70;34.85;;;;;;;1.12;100.00;103398.72;5104757;28;20024;-60
2023/01/23 03:56:40;;;;;;;41.33;34.33;;;;;;;1.07;100.00;103395.13;5110366;28;20030;-59
2023/01/23 03:59:05;;;;;;;43.67;33.97;;;;;;;1.13;100.00;103396.13;5097077;28;20182;-60
2023/01/23 04:01:31;;;;;;;44.73;35.87;;;;;;;1.09;100.00;103407.41;5111430;28;20031;-59
2023/01/23 04:03:56;;;;;;;43.97;35.23;;;;;;;1.11;100.00;103408.31;5111010;28;20399;-59
2023/01/23 04:06:22;;;;;;;47.63;34.03;;;;;;;1.14;100.00;103399.63;5111203;28;20027;-59
2023/01/23 04:08:47;;;;;;;45.90;35.03;;;;;;;1.17;100.00;103386.56;5079061;28;20715;-60
2023/01/23 04:11:13;;;;;;;50.27;35.63;;;;;;;1.16;100.00;103391.81;5092797;28;20031;-60
2023/01/23 04:13:38;;;;;;;47.87;35.10;;;;;;;1.15;100.00;103393.53;5093856;28;20028;-60
2023/01/23 04:16:04;;;;;;;46.23;34.37;;;;;;;1.12;100.00;103399.63;5111160;28;20110;-59
2023/01/23 04:18:30;;;;;;;46.72;34.80;;;;;;;1.06;100.00;103390.72;5111268;28;20059;-59
2023/01/23 04:20:56;;;;;;;46.93;35.23;;;;;;;1.09;100.00;103396.06;5111226;28;20030;-59
2023/01/23 04:23:22;;;;;;;45.17;35.10;;;;;;;1.08;100.00;103395.16;5108837;28;20042;-60
2023/01/23 04:25:48;;;;;;;51.05;35.78;;;;;;;1.10;100.00;103397.81;5096513;28;20374;-59
2023/01/23 04:28:13;;;;;;;43.17;33.50;;;;;;;1.05;100.00;103388.97;5111175;28;20019;-59
2023/01/23 04:30:39;;;;;;;44.38;35.03;;;;;;;1.08;100.00;103395.16;5111155;28;20046;-60
2023/01/23 04:33:07;;;;;;;44.23;34.73;;;;;;;1.15;100.00;103406.66;5111092;28;20171;-60
2023/01/23 04:35:34;;;;;;;48.10;36.67;;;;;;;1.20;100.00;103410.22;5098438;28;20387;-59
2023/01/23 04:38:00;;;;;;;48.47;35.10;;;;;;;1.19;100.00;103407.56;5111932;28;20031;-59
2023/01/23 04:40:25;;;;;;;51.08;34.65;;;;;;;1.17;100.00;103409.28;5073372;28;20084;-59
2023/01/23 04:42:51;;;;;;;42.25;34.80;;;;;;;1.21;100.00;103413.75;5081794;28;20039;-60
2023/01/23 04:45:18;;;;;;;45.10;36.67;;;;;;;1.17;100.00;103414.53;5098376;28;20034;-59
2023/01/23 04:47:44;;;;;;;46.20;35.10;;;;;;;1.16;100.00;103407.53;5115738;28;20023;-59
2023/01/23 04:50:10;;;;;;;46.33;35.63;;;;;;;1.21;100.00;103411.13;5096122;28;20546;-59
2023/01/23 04:52:35;;;;;;;45.60;35.37;;;;;;;1.19;100.00;103415.44;5097444;28;20110;-59
2023/01/23 04:55:01;;;;;;;46.93;36.30;;;;;;;1.19;100.00;103421.56;5113998;28;20036;-59
2023/01/23 04:57:27;;;;;;;51.90;36.53;;;;;;;1.17;100.00;103419.75;5114670;28;20510;-59
2023/01/23 04:59:52;;;;;;;43.70;34.67;;;;;;;1.21;100.00;103424.22;5113793;28;20433;-59
2023/01/23 05:02:17;;;;;;;46.17;35.43;;;;;;;1.20;100.00;103422.44;5096254;28;20047;-59
2023/01/23 05:04:43;;;;;;;47.22;36.88;;;;;;;1.20;100.00;103425.06;5095063;28;20047;-59
2023/01/23 05:07:11;;;;;;;47.47;34.72;;;;;;;1.20;100.00;103431.19;5096649;28;20024;-60
2023/01/23 05:09:37;;;;;;;46.83;36.93;;;;;;;1.18;100.00;103430.28;5080837;28;20483;-59
2023/01/23 05:12:03;;;;;;;47.80;37.30;;;;;;;1.17;100.00;103425.00;5097061;28;20060;-59
2023/01/23 05:14:31;;;;;;;50.23;38.10;;;;;;;1.22;100.00;103432.09;5088105;28;20115;-59
2023/01/23 05:16:56;;;;;;;46.67;35.43;;;;;;;1.26;100.00;103431.28;5109447;28;20475;-59
2023/01/23 05:19:22;;;;;;;50.70;36.53;;;;;;;1.27;100.00;103434.81;5113649;28;20125;-59
2023/01/23 05:21:50;;;;;;;53.37;36.37;;;;;;;1.24;100.00;103430.41;5114012;28;20024;-59
2023/01/23 05:24:15;;;;;;;46.87;35.57;;;;;;;1.23;100.00;103435.59;5108841;28;20078;-59
2023/01/23 05:26:41;;;;;;;46.30;36.83;;;;;;;1.22;100.00;103433.84;5108062;28;20584;-59
2023/01/23 05:29:07;;;;;;;54.53;37.50;;;;;;;1.14;100.00;103425.81;5096585;28;20106;-59
2023/01/23 05:31:32;;;;;;;52.17;37.03;;;;;;;1.19;100.00;103432.03;5094416;28;20099;-59
2023/01/23 05:33:57;;;;;;;47.85;37.08;;;;;;;1.09;100.00;103425.75;5104062;28;20046;-59
2023/01/23 05:36:23;;;;;;;48.78;37.95;;;;;;;1.17;100.00;103440.72;5114752;28;20485;-59
2023/01/23 05:38:48;;;;;;;52.57;37.63;;;;;;;1.21;100.00;103437.31;5104588;28;20263;-59
2023/01/23 05:41:13;;;;;;;53.22;37.30;;;;;;;1.17;100.00;103440.72;5094280;28;20487;-60
2023/01/23 05:43:39;;;;;;;48.23;37.30;;;;;;;1.13;100.00;103432.81;5113716;28;20027;-59
2023/01/23 05:46:07;;;;;;;49.13;37.63;;;;;;;1.13;100.00;103427.56;5114750;28;20020;-60
2023/01/23 05:48:32;;;;;;;51.72;37.60;;;;;;;1.16;100.00;103434.59;5096035;28;20079;-59
2023/01/23 05:50:58;;;;;;;47.60;37.60;;;;;;;1.14;100.00;103447.66;5096381;28;20073;-59
2023/01/23 05:53:23;;;;;;;49.70;36.83;;;;;;;1.16;100.00;103445.09;5114306;28;20031;-59
2023/01/23 05:55:48;;;;;;;46.20;36.28;;;;;;;1.19;100.00;103437.28;5104437;28;20211;-59
2023/01/23 05:58:14;;;;;;;44.10;35.97;;;;;;;1.24;100.00;103443.50;5093415;28;20426;-59
2023/01/23 06:00:39;;;;;;;49.40;38.25;;;;;;;1.18;100.00;103442.47;5092482;28;20502;-59
2023/01/23 06:03:05;;;;;;;49.80;37.50;;;;;;;1.26;100.00;103456.63;5093629;28;20027;-60
2023/01/23 06:05:32;;;;;;;47.10;38.67;;;;;;;1.32;100.00;103456.72;5094639;28;20055;-59
2023/01/23 06:07:57;;;;;;;50.23;38.80;;;;;;;1.29;100.00;103454.06;5093806;28;20040;-60
2023/01/23 06:10:25;;;;;;;48.37;37.40;;;;;;;1.29;100.00;103459.28;5093264;28;20060;-59
2023/01/23 06:12:50;;;;;;;47.90;37.13;;;;;;;1.26;100.00;103469.72;5103438;28;20535;-60
2023/01/23 06:15:16;;;;;;;46.67;36.67;;;;;;;1.26;100.00;103462.75;5114123;28;20020;-60
2023/01/23 06:17:43;;;;;;;48.20;37.28;;;;;;;1.33;100.00;103462.00;5113905;28;20027;-60
2023/01/23 06:20:11;;;;;;;47.28;37.47;;;;;;;1.29;100.00;103464.53;5079031;28;20024;-60
2023/01/23 06:22:37;;;;;;;50.33;37.07;;;;;;;1.32;100.00;103468.13;5112937;28;20030;-60
2023/01/23 06:25:05;;;;;;;47.38;37.72;;;;;;;1.27;100.00;103467.16;5109459;28;20298;-60
2023/01/23 06:27:30;;;;;;;48.30;37.27;;;;;;;1.30;100.00;103472.44;5104423;28;20046;-60
2023/01/23 06:29:56;;;;;;;46.63;37.43;;;;;;;1.33;100.00;103476.88;5091932;28;20023;-59
2023/01/23 06:32:22;;;;;;;51.00;38.15;;;;;;;1.33;100.00;103480.34;5099332;28;20036;-60
2023/01/23 06:34:48;;;;;;;48.93;39.10;;;;;;;1.30;100.00;103467.19;5099294;28;20024;-60
2023/01/23 06:37:13;;;;;;;48.53;37.60;;;;;;;1.35;100.00;103472.50;5110458;28;20035;-59
2023/01/23 06:39:39;;;;;;;49.80;37.63;;;;;;;1.28;100.00;103466.28;5087094;28;20024;-59
2023/01/23 06:42:08;;;;;;;52.53;38.90;;;;;;;1.33;100.00;103467.25;5086457;28;20024;-60
2023/01/23 06:44:34;;;;;;;51.83;38.13;;;;;;;1.35;100.00;103473.41;5107542;28;20030;-60
2023/01/23 06:46:59;;;;;;;53.63;38.60;;;;;;;1.31;100.00;103476.81;5082664;28;20115;-59
2023/01/23 06:49:25;;;;;;;46.85;38.42;;;;;;;1.26;100.00;103459.25;5091715;28;20470;-60
2023/01/23 06:51:50;;;;;;;47.03;38.92;;;;;;;1.42;100.00;103473.53;5111163;28;20032;-59
2023/01/23 06:54:15;;;;;;;49.35;37.45;;;;;;;1.36;100.00;103479.53;5112745;28;20386;-59
2023/01/23 06:56:41;;;;;;;48.07;39.17;;;;;;;1.38;100.00;103474.31;5094846;28;20024;-59
2023/01/23 06:59:08;;;;;;;54.77;40.20;;;;;;;1.37;100.00;103483.91;5094739;28;20026;-60
2023/01/23 07:01:34;;;;;;;47.50;38.63;;;;;;;1.37;100.00;103476.03;5094836;28;20028;-60
2023/01/23 07:03:59;;;;;;;48.92;37.97;;;;;;;1.37;100.00;103491.78;5105477;28;20027;-59
2023/01/23 07:06:25;;;;;;;49.42;37.47;;;;;;;1.33;100.00;103484.72;5113204;28;20044;-60
2023/01/23 07:08:50;;;;;;;50.60;39.28;;;;;;;1.32;100.00;103486.47;5111676;28;20059;-59
2023/01/23 07:11:15;;;;;;;48.65;37.63;;;;;;;1.30;100.00;103484.66;5094753;28;20080;-59
2023/01/23 07:13:41;;;;;;;47.70;38.03;;;;;;;1.35;100.00;103499.63;5094621;28;20453;-59
2023/01/23 07:16:07;;;;;;;45.40;37.20;;;;;;;1.32;100.00;103506.53;5094387;28;20377;-60
2023/01/23 07:18:34;;;;;;;47.87;38.10;;;;;;;1.37;100.00;103507.50;5112720;28;20030;-59
2023/01/23 07:21:03;;;;;;;43.87;36.87;;;;;;;1.37;100.00;103507.50;5111977;28;20435;-59
2023/01/23 07:23:28;;;;;;;47.00;37.10;;;;;;;1.41;100.00;103504.06;5112872;28;20035;-60
2023/01/23 07:25:59;;;;;;;48.38;38.22;;;;;;;1.33;100.00;103489.97;5105275;28;20520;-59
2023/01/23 07:28:24;;;;;;;46.05;36.95;;;;;;;1.38;100.00;103513.63;5107756;28;20493;-60
2023/01/23 07:30:49;;;;;;;48.07;37.33;;;;;;;1.44;100.00;103514.66;5096448;28;20045;-60
2023/01/23 07:33:15;;;;;;;47.27;37.27;;;;;;;1.46;100.00;103517.28;5101250;28;20016;-60
2023/01/23 07:35:40;;;;;;;44.87;36.27;;;;;;;1.40;100.00;103525.03;5094159;28;20114;-60
2023/01/23 07:38:05;;;;;;;46.50;36.77;;;;;;;1.43;100.00;103523.34;5100673;28;20028;-60
2023/01/23 07:40:31;;;;;;;46.03;36.83;;;;;;;1.38;100.00;103524.13;5104615;28;20026;-60
2023/01/23 07:42:56;;;;;;;47.40;37.93;;;;;;;1.41;100.00;103525.06;5099906;28;20428;-59
2023/01/23 07:45:24;;;;;;;45.70;36.10;;;;;;;1.44;100.00;103529.47;5111077;28;20038;-60
2023/01/23 07:47:49;;;;;;;47.00;37.72;;;;;;;1.43;100.00;103531.22;5110153;28;20039;-59
2023/01/23 07:50:15;;;;;;;44.07;34.87;;;;;;;1.44;100.00;103535.63;5104393;28;20079;-60
2023/01/23 07:52:40;;;;;;;46.17;36.40;;;;;;;1.43;100.00;103532.97;5091800;28;20416;-60
2023/01/23 07:55:06;;;;;;;46.47;36.80;;;;;;;1.46;100.00;103536.50;5111453;28;20028;-60
2023/01/23 07:57:32;;;;;;;46.37;36.57;;;;;;;1.44;100.00;103539.97;5112374;28;20031;-60
2023/01/23 07:59:58;;;;;;;49.63;36.23;;;;;;;1.49;100.00;103554.94;5109977;28;20052;-60
2023/01/23 08:02:23;;;;;;;49.90;38.37;;;;;;;1.49;100.00;103549.69;5106866;28;20063;-60
2023/01/23 08:04:49;;;;;;;48.50;37.95;;;;;;;1.47;100.00;103546.16;5097961;28;20060;-59
2023/01/23 08:07:14;;;;;;;46.03;36.28;;;;;;;1.49;100.00;103541.81;5096221;28;20082;-60
2023/01/23 08:09:40;;;;;;;43.17;37.00;;;;;;;1.47;100.00;103540.00;5074704;28;20024;-60
2023/01/23 08:12:05;;;;;;;45.40;37.20;;;;;;;1.52;100.00;103536.63;5109609;28;20495;-60
2023/01/23 08:14:31;;;;;;;40.03;35.70;;;;;;;1.55;100.00;103547.16;5092579;28;20123;-60
2023/01/23 08:16:56;;;;;;;43.07;36.33;;;;;;;1.49;100.00;103530.44;5111676;28;20059;-60
2023/01/23 08:19:24;;;;;;;43.33;36.53;;;;;;;1.58;100.00;103551.59;5111191;28;20036;-60
2023/01/23 08:21:50;;;;;;;45.73;37.43;;;;;;;1.58;100.00;103548.97;5116260;28;20024;-60
2023/01/23 08:24:17;;;;;;;43.00;35.97;;;;;;;1.59;100.00;103553.38;5115760;28;20110;-60
2023/01/23 08:26:43;;;;;;;42.80;36.37;;;;;;;1.58;100.00;103549.84;5101860;28;20028;-60
2023/01/23 08:29:09;;;;;;;45.17;36.50;;;;;;;1.63;100.00;103547.31;5077183;28;20038;-60
2023/01/23 08:31:35;;;;;;;44.60;35.83;;;;;;;1.62;100.00;103548.19;5088885;28;20023;-63
2023/01/23 08:34:01;;;;;;;41.43;36.17;;;;;;;1.59;100.00;103554.25;5113732;28;20032;-60
2023/01/23 08:36:28;;;;;;;45.33;35.33;;;;;;;1.51;100.00;103545.34;5115548;28;20027;-59
2023/01/23 08:38:54;;;;;;;40.77;35.93;;;;;;;1.66;100.00;103554.38;5114855;28;20050;-60
2023/01/23 08:41:20;;;;;;;44.97;36.53;;;;;;;1.60;100.00;103557.75;5115921;28;20031;-60
2023/01/23 08:43:46;;;;;;;40.65;34.10;;;;;;;1.66;100.00;103572.72;5112360;28;20699;-60
2023/01/23 08:46:11;;;;;;;41.30;34.43;;;;;;;1.69;100.00;103570.16;5110922;28;20031;-60
2023/01/23 08:48:37;;;;;;;45.77;35.57;;;;;;;1.70;100.00;103564.91;5097253;28;20032;-60
2023/01/23 08:51:07;;;;;;;43.20;35.53;;;;;;;1.70;100.00;103567.53;5115721;28;20027;-59
2023/01/23 08:53:33;;;;;;;45.83;36.40;;;;;;;1.70;100.00;103570.16;5096973;28;20047;-60
2023/01/23 08:56:07;;;;;;;41.93;35.03;;;;;;;1.71;100.00;103568.44;5097591;28;20482;-59
2023/01/23 08:58:33;;;;;;;42.53;35.33;;;;;;;1.73;100.00;103575.47;5115473;28;20023;-60
2023/01/23 09:00:59;;;;;;;43.80;34.38;;;;;;;1.77;100.00;103576.44;5115629;28;20028;-60
2023/01/23 09:03:25;;;;;;;43.53;35.47;;;;;;;1.75;100.00;103571.13;5097305;28;20538;-59
2023/01/23 09:05:51;;;;;;;43.80;37.47;;;;;;;1.75;100.00;103570.25;5096997;28;20578;-59
2023/01/23 09:08:16;;;;;;;43.17;36.13;;;;;;;1.77;100.00;103568.56;5115461;28;20028;-60
2023/01/23 09:10:42;;;;;;;41.03;35.67;;;;;;;1.80;100.00;103566.88;5114736;28;20054;-60
2023/01/23 09:13:07;;;;;;;41.97;34.15;;;;;;;1.81;100.00;103573.00;5115296;28;20107;-60
2023/01/23 09:15:36;;;;;;;39.42;34.72;;;;;;;1.81;100.00;103583.47;5096755;28;20053;-59
2023/01/23 09:18:02;;;;;;;42.75;35.55;;;;;;;1.75;100.00;103567.63;5080135;28;20023;-60
2023/01/23 09:20:28;;;;;;;40.35;35.45;;;;;;;1.84;100.00;103575.66;5114765;28;20035;-59
2023/01/23 09:22:53;;;;;;;44.10;35.78;;;;;;;1.90;100.00;103575.75;5096851;28;20023;-60
2023/01/23 09:25:19;;;;;;;39.53;34.88;;;;;;;1.94;100.00;103568.81;5114433;28;20319;-59
2023/01/23 09:27:47;;;;;;;44.50;35.78;;;;;;;1.92;100.00;103565.31;5096836;28;20152;-60
2023/01/23 09:30:13;;;;;;;39.00;33.75;;;;;;;1.94;100.00;103568.81;5114763;28;20042;-60
2023/01/23 09:32:38;;;;;;;40.80;34.47;;;;;;;2.02;100.00;103561.97;5114088;28;20031;-59
2023/01/23 09:35:04;;;;;;;42.20;34.08;;;;;;;2.01;100.00;103562.84;5096259;28;20020;-60
2023/01/23 09:37:58;;;;;;;40.20;34.20;;;;;;;2.11;100.00;103569.97;5096584;28;20106;-59
2023/01/23 09:40:18;;;;;;;39.47;33.38;;;;;;;2.15;100.00;103565.69;5113768;28;20038;-60
2023/01/23 09:42:46;;;;;;;38.33;33.95;;;;;;;2.21;100.00;103565.78;5114557;28;20386;-60
2023/01/23 09:45:17;;;;;;;38.70;32.80;;;;;;;2.23;100.00;103569.28;5114540;28;20012;-60
2023/01/23 09:47:50;;;;;;;39.60;32.97;;;;;;;2.30;100.00;103579.06;5114879;28;20034;-60
2023/01/23 09:50:32;;;;;;;38.10;33.38;;;;;;;2.31;100.00;103578.19;5114455;28;20121;-60
2023/01/23 09:53:13;;;;;;;39.75;33.58;;;;;;;2.35;100.00;103579.97;5114563;28;20019;-60
2023/01/23 09:55:52;;;;;;;36.90;32.72;;;;;;;2.36;100.00;103601.91;5095408;28;20023;-60
2023/01/23 09:58:23;;;;;;;38.50;33.20;;;;;;;2.25;100.00;103585.97;5096295;28;20427;-60
2023/01/23 10:00:50;;;;;;;36.05;32.15;;;;;;;2.31;100.00;103593.94;5114284;28;20359;-59
2023/01/23 10:03:16;;;;;;;36.85;32.40;;;;;;;2.26;100.00;103587.72;5114217;28;20080;-60
2023/01/23 10:05:45;;;;;;;37.85;32.42;;;;;;;2.27;100.00;103594.75;5114088;28;20035;-60
2023/01/23 10:08:25;;;;;;;37.28;32.47;;;;;;;2.26;100.00;103592.97;5114261;28;20032;-60
2023/01/23 10:11:17;;;;;;;37.38;32.17;;;;;;;2.30;100.00;103586.06;5113557;28;20127;-60
2023/01/23 10:14:10;;;;;;;38.42;31.88;;;;;;;2.33;100.00;103593.97;5106168;28;20066;-59
2023/01/23 10:16:57;;;;;;;41.00;32.53;;;;;;;2.36;100.00;103592.28;5114138;28;20072;-60
2023/01/23 10:19:53;;;;;;;40.30;30.55;;;;;;;2.38;100.00;103593.19;5113960;28;20024;-59
2023/01/23 10:22:36;;;;;;;37.13;31.10;;;;;;;2.33;100.00;103589.59;5113874;28;20023;-60
2023/01/23 10:25:11;;;;;;;37.25;31.52;;;;;;;2.32;100.00;103592.19;5094508;28;20070;-60
2023/01/23 10:27:44;;;;;;;39.78;32.85;;;;;;;2.32;100.00;103593.06;5113755;28;20057;-60
2023/01/23 10:30:29;;;;;;;38.53;32.10;;;;;;;2.36;100.00;103599.28;5113397;28;20231;-59
2023/01/23 10:32:59;;;;;;;36.90;30.88;;;;;;;2.35;100.00;103603.63;5095355;28;20485;-59
2023/01/23 10:35:56;;;;;;;37.10;31.02;;;;;;;2.38;100.00;103597.53;5113415;28;20024;-60
2023/01/23 10:38:22;;;;;;;41.83;34.55;;;;;;;2.36;100.00;103594.91;5095112;28;20027;-60
2023/01/23 10:43:34;;;;;;;37.13;32.42;;;;;;;2.38;100.00;103589.66;5113454;28;20043;-60
2023/01/23 10:45:59;;;;;;;37.45;31.88;;;;;;;2.43;100.00;103593.25;5095269;28;20039;-60
2023/01/23 10:48:31;;;;;;;41.30;32.65;;;;;;;2.46;100.00;103598.53;5095188;28;20418;-60
2023/01/23 10:51:00;;;;;;;38.55;32.22;;;;;;;2.50;100.00;103593.38;5095215;28;20470;-60
2023/01/23 10:53:28;;;;;;;35.95;31.92;;;;;;;2.54;100.00;103594.28;5094658;28;20375;-60
2023/01/23 10:55:58;;;;;;;38.38;31.35;;;;;;;2.54;100.00;103582.91;5094663;28;20031;-59
2023/01/23 10:58:26;;;;;;;36.88;32.92;;;;;;;2.59;100.00;103583.84;5094944;28;20026;-59
2023/01/23 11:00:52;;;;;;;34.55;30.55;;;;;;;2.54;100.00;103570.66;5113257;28;20027;-59
2023/01/23 11:03:20;;;;;;;34.22;30.38;;;;;;;2.63;100.00;103589.16;5094941;28;20130;-60
2023/01/23 11:06:06;;;;;;;35.75;31.85;;;;;;;2.66;99.77;103583.97;5112792;28;20048;-59
2023/01/23 11:08:35;;;;;;;34.03;30.35;;;;;;;2.66;99.80;103578.69;5112364;28;20031;-59
2023/01/23 11:11:29;;;;;;;35.45;29.75;;;;;;;2.73;99.61;103580.53;5113061;28;20035;-60
2023/01/23 11:14:12;;;;;;;34.15;29.80;;;;;;;2.77;100.00;103576.22;5112958;28;20058;-59
2023/01/23 11:16:38;;;;;;;36.92;30.10;;;;;;;2.72;98.95;103578.78;5094433;28;20034;-59
2023/01/23 11:19:07;;;;;;;35.15;30.75;;;;;;;2.76;99.52;103576.19;5112644;28;20027;-59
2023/01/23 11:21:34;;;;;;;37.65;29.92;;;;;;;2.73;99.69;103564.78;5094345;28;20042;-60
2023/01/23 11:24:20;;;;;;;33.85;29.48;;;;;;;2.85;99.31;103581.56;5093815;28;20030;-59